Time;durP1;ratioP1;P1;durP2;ratioP2;P2;SDS_P1;SDS_P2;PMS_P1;PMS_P2;Temp;Humidity;BMP_temperature;BMP_pressure;BME280_temperature;BME280_humidity;BME280_pressure;Samples;Min_cycle;Max_cycle;Signal;HPM_P1;HPM_P2
2021/11/14 00:00:54;;;;;;;18.23;9.08;;;;;;;8.69;75.13;101661.75;1766151;80;20991;-74
2021/11/14 00:03:22;;;;;;;17.32;10.18;;;;;;;8.58;76.30;101659.28;1765899;81;21145;-74
2021/11/14 00:05:49;;;;;;;17.85;9.60;;;;;;;8.64;76.46;101662.65;1758155;81;20919;-74
2021/11/14 00:08:17;;;;;;;18.67;10.18;;;;;;;8.46;77.78;101671.09;1762295;81;20975;-73
2021/11/14 00:10:49;;;;;;;17.02;9.90;;;;;;;8.34;78.73;101672.14;1762626;81;21449;-70
2021/11/14 00:13:16;;;;;;;14.25;9.20;;;;;;;8.19;80.95;101669.09;1762294;81;21050;-71
2021/11/14 00:15:44;;;;;;;15.35;8.80;;;;;;;8.25;80.07;101671.63;1763062;81;21161;-72
2021/11/14 00:18:11;;;;;;;18.42;10.13;;;;;;;8.21;79.91;101671.55;1761282;81;20980;-74
2021/11/14 00:20:38;;;;;;;13.95;9.05;;;;;;;8.04;82.23;101670.41;1759278;81;20994;-70
2021/11/14 00:23:06;;;;;;;13.03;9.13;;;;;;;8.10;81.04;101668.57;1761242;81;21062;-73
2021/11/14 00:25:33;;;;;;;18.45;11.00;;;;;;;8.11;80.92;101668.13;1763296;81;20908;-74
2021/11/14 00:28:01;;;;;;;14.28;8.80;;;;;;;7.93;81.83;101670.03;1758320;81;21808;-68
2021/11/14 00:30:31;;;;;;;16.95;9.80;;;;;;;7.88;82.50;101682.59;1760803;80;21005;-71
2021/11/14 00:32:58;;;;;;;14.13;9.30;;;;;;;7.95;81.34;101677.20;1761906;81;21069;-72
2021/11/14 00:35:25;;;;;;;14.98;9.80;;;;;;;7.91;82.77;101681.01;1762410;81;21528;-75
2021/11/14 00:37:53;;;;;;;17.30;9.70;;;;;;;7.82;84.21;101675.31;1762117;81;20992;-74
2021/11/14 00:40:24;;;;;;;16.32;9.60;;;;;;;7.95;83.78;101678.49;1760351;81;21136;-73
2021/11/14 00:42:52;;;;;;;16.48;10.53;;;;;;;7.86;83.06;101676.70;1760843;81;21363;-74
2021/11/14 00:45:18;;;;;;;18.37;10.50;;;;;;;7.91;82.21;101673.22;1768436;80;20990;-73
2021/11/14 00:47:45;;;;;;;21.00;12.37;;;;;;;7.88;81.70;101674.80;1762824;80;21050;-72
2021/11/14 00:50:13;;;;;;;21.00;12.40;;;;;;;7.82;81.67;101675.31;1762087;81;20978;-69
2021/11/14 00:52:41;;;;;;;18.45;11.60;;;;;;;7.91;80.80;101673.22;1762958;80;22421;-72
2021/11/14 00:55:10;;;;;;;21.35;13.08;;;;;;;7.85;79.69;101675.06;1762835;81;20916;-72
2021/11/14 00:57:37;;;;;;;21.25;12.50;;;;;;;7.80;79.36;101669.41;1763310;81;21528;-72
2021/11/14 01:00:11;;;;;;;21.80;12.43;;;;;;;7.60;79.70;101670.28;1762669;80;21079;-74
2021/11/14 01:02:38;;;;;;;25.52;14.33;;;;;;;7.45;81.07;101677.09;1762640;81;22149;-72
2021/11/14 01:05:08;;;;;;;26.33;16.02;;;;;;;7.44;80.98;101676.75;1761988;81;20979;-73
2021/11/14 01:07:36;;;;;;;23.50;15.32;;;;;;;7.13;82.96;101678.47;1762608;81;21488;-71
2021/11/14 01:10:05;;;;;;;27.15;15.80;;;;;;;7.09;82.54;101678.38;1762412;81;21047;-69
2021/11/14 01:12:34;;;;;;;24.30;15.58;;;;;;;7.14;81.69;101675.41;1761738;81;21046;-69
2021/11/14 01:15:03;;;;;;;26.95;16.48;;;;;;;7.17;80.26;101673.86;1762690;81;21627;-73
2021/11/14 01:17:31;;;;;;;25.40;17.10;;;;;;;7.11;79.84;101680.83;1762496;81;21972;-74
2021/11/14 01:19:59;;;;;;;27.05;17.40;;;;;;;7.03;80.67;101679.69;1762062;81;21486;-71
2021/11/14 01:22:26;;;;;;;24.30;15.18;;;;;;;6.84;81.16;101670.45;1762777;81;21455;-69
2021/11/14 01:24:53;;;;;;;31.45;18.10;;;;;;;7.03;80.83;101676.27;1762303;81;21098;-72
2021/11/14 01:27:21;;;;;;;30.50;17.23;;;;;;;7.10;77.94;101670.13;1760484;81;21134;-72
2021/11/14 01:29:49;;;;;;;28.80;16.77;;;;;;;7.11;76.83;101675.17;1761014;81;21148;-71
2021/11/14 01:32:16;;;;;;;23.67;16.02;;;;;;;7.20;76.25;101677.50;1760327;81;20983;-69
2021/11/14 01:34:44;;;;;;;22.42;14.50;;;;;;;7.36;75.40;101673.98;1762214;81;21055;-73
2021/11/14 01:37:11;;;;;;;26.20;16.85;;;;;;;7.24;75.54;101680.19;1762584;81;21000;-72
2021/11/14 01:39:38;;;;;;;22.42;15.35;;;;;;;7.19;75.97;101678.43;1758981;81;20992;-73
2021/11/14 01:42:06;;;;;;;29.35;16.20;;;;;;;7.31;74.08;101679.56;1756256;81;21138;-70
2021/11/14 01:44:33;;;;;;;25.95;15.25;;;;;;;7.34;72.45;101678.46;1757767;81;21018;-70
2021/11/14 01:47:00;;;;;;;23.32;14.65;;;;;;;7.29;72.37;101677.55;1758433;81;21133;-74
2021/11/14 01:49:29;;;;;;;27.45;15.55;;;;;;;7.25;72.26;101671.45;1757312;81;21060;-73
2021/11/14 01:51:56;;;;;;;22.87;15.53;;;;;;;7.17;72.62;101678.56;1758910;81;21114;-73
2021/11/14 01:54:24;;;;;;;25.17;15.45;;;;;;;7.71;69.78;101684.00;1756263;81;21147;-73
2021/11/14 01:56:51;;;;;;;21.33;14.28;;;;;;;7.06;73.91;101695.47;1759064;81;21271;-72
2021/11/14 01:59:18;;;;;;;20.12;12.53;;;;;;;7.12;74.90;101692.84;1756031;81;21430;-74
2021/11/14 02:01:46;;;;;;;18.67;12.78;;;;;;;7.07;76.34;101696.62;1758917;81;21571;-75
2021/11/14 02:04:14;;;;;;;19.57;12.37;;;;;;;7.18;77.15;101696.23;1757810;81;20978;-74
2021/11/14 02:06:46;;;;;;;21.10;12.30;;;;;;;7.42;77.42;101698.58;1763929;81;21354;-73
2021/11/14 02:09:10;;;;;;;28.62;16.55;;;;;;;7.21;82.65;101703.77;1758987;80;21406;-69
2021/11/14 02:11:39;;;;;;;32.30;17.67;;;;;;;7.63;78.62;101698.10;1759942;81;21129;-73
2021/11/14 02:14:06;;;;;;;43.58;19.70;;;;;;;6.93;77.37;101706.02;1761884;81;21494;-68
2021/11/14 02:16:33;;;;;;;46.37;26.70;;;;;;;6.20;93.79;101709.23;1762155;81;20979;-74
2021/11/14 02:19:00;;;;;;;53.95;30.10;;;;;;;5.79;97.62;101715.77;1763353;81;21152;-75
2021/11/14 02:21:28;;;;;;;47.10;29.18;;;;;;;5.86;95.68;101714.36;1759329;81;20900;-73
2021/11/14 02:23:55;;;;;;;53.33;30.00;;;;;;;5.75;92.42;101715.17;1762521;81;21450;-75
2021/11/14 02:26:23;;;;;;;53.35;29.95;;;;;;;5.80;91.13;101713.08;1758391;81;20996;-73
2021/11/14 02:28:52;;;;;;;56.65;32.85;;;;;;;5.93;86.01;101711.70;1761789;81;21114;-75
2021/11/14 02:31:20;;;;;;;61.25;32.95;;;;;;;5.91;83.67;101714.86;1757710;81;21169;-67
2021/11/14 02:33:47;;;;;;;56.85;30.12;;;;;;;5.76;83.52;101716.02;1761725;81;20940;-74
2021/11/14 02:36:14;;;;;;;44.23;24.92;;;;;;;5.44;87.45;101713.23;1757602;81;20994;-72
2021/11/14 02:38:41;;;;;;;37.25;22.02;;;;;;;5.35;91.44;101716.05;1760604;80;21048;-74
2021/11/14 02:41:09;;;;;;;32.35;19.42;;;;;;;5.37;93.04;101718.85;1757512;81;20971;-74
2021/11/14 02:43:37;;;;;;;32.40;18.48;;;;;;;5.55;91.87;101715.85;1759784;81;21195;-69
2021/11/14 02:46:04;;;;;;;28.57;18.10;;;;;;;5.45;92.73;101716.98;1757679;81;20987;-74
2021/11/14 02:48:31;;;;;;;24.92;15.50;;;;;;;5.41;93.85;101715.57;1758330;81;21100;-74
2021/11/14 02:50:59;;;;;;;30.90;17.40;;;;;;;5.37;95.54;101714.16;1759395;81;20943;-73
2021/11/14 02:53:26;;;;;;;25.50;14.33;;;;;;;5.47;96.21;101717.72;1759969;81;21003;-73
2021/11/14 02:55:53;;;;;;;23.45;14.03;;;;;;;5.48;96.53;101715.48;1759775;81;21210;-68
2021/11/14 02:58:21;;;;;;;21.17;12.63;;;;;;;5.54;97.23;101712.45;1755853;81;21058;-73
2021/11/14 03:01:00;;;;;;;20.17;12.98;;;;;;;5.64;96.77;101709.98;1758336;81;20995;-76
2021/11/14 03:03:27;;;;;;;22.32;12.28;;;;;;;5.73;95.21;101717.54;1766095;80;21026;-74
2021/11/14 03:05:54;;;;;;;17.48;11.63;;;;;;;5.55;96.83;101717.97;1762309;81;21038;-70
2021/11/14 03:08:22;;;;;;;23.40;13.00;;;;;;;5.56;98.91;101715.72;1762451;81;21165;-75
2021/11/14 03:10:50;;;;;;;22.20;12.58;;;;;;;5.54;100.00;101713.73;1762689;81;21055;-76
2021/11/14 03:13:20;;;;;;;25.23;13.10;;;;;;;5.46;100.00;101715.26;1762028;80;21033;-75
2021/11/14 03:15:51;;;;;;;23.00;13.03;;;;;;;5.63;100.00;101712.69;1762442;81;20971;-75
2021/11/14 03:18:19;;;;;;;22.73;13.88;;;;;;;5.82;100.00;101718.13;1761477;81;24448;-73
2021/11/14 03:20:48;;;;;;;22.30;12.85;;;;;;;5.93;98.77;101712.17;1763217;81;21167;-74
2021/11/14 03:23:15;;;;;;;23.70;12.25;;;;;;;5.76;99.31;101717.31;1762133;81;21019;-76
2021/11/14 03:25:43;;;;;;;19.87;13.08;;;;;;;5.89;98.47;101715.43;1762639;81;20983;-73
2021/11/14 03:28:11;;;;;;;19.07;11.65;;;;;;;6.12;95.84;101709.00;1761589;81;21507;-72
2021/11/14 03:30:39;;;;;;;16.73;10.35;;;;;;;6.24;93.79;101714.52;1763112;81;21497;-73
2021/11/14 03:33:10;;;;;;;18.80;10.70;;;;;;;6.40;92.16;101714.95;1762621;81;21823;-76
2021/11/14 03:35:44;;;;;;;18.40;12.13;;;;;;;5.76;100.00;101719.90;1762449;81;21036;-76
2021/11/14 03:38:12;;;;;;;19.95;12.18;;;;;;;5.79;100.00;101719.17;1757092;81;21647;-75
2021/11/14 03:40:39;;;;;;;21.97;13.20;;;;;;;5.95;100.00;101718.89;1762672;81;21023;-75
2021/11/14 03:43:07;;;;;;;17.57;13.03;;;;;;;5.83;100.00;101721.06;1761503;81;20975;-75
2021/11/14 03:45:35;;;;;;;19.15;11.18;;;;;;;5.89;100.00;101725.78;1768204;80;21157;-76
2021/11/14 03:48:02;;;;;;;18.12;12.75;;;;;;;6.19;100.00;101725.23;1759414;81;21005;-70
2021/11/14 03:50:30;;;;;;;17.95;11.70;;;;;;;5.85;100.00;101729.06;1758251;81;21154;-76
2021/11/14 03:52:57;;;;;;;20.30;13.10;;;;;;;6.01;100.00;101726.16;1759753;81;21066;-75
2021/11/14 03:55:25;;;;;;;20.72;11.20;;;;;;;6.16;100.00;101725.47;1757063;81;20975;-70
2021/11/14 03:57:52;;;;;;;22.07;12.95;;;;;;;6.15;100.00;101733.36;1758439;81;21222;-67
2021/11/14 04:00:23;;;;;;;20.37;12.88;;;;;;;6.05;100.00;101735.34;1756819;78;20990;-72
2021/11/14 04:02:51;;;;;;;18.07;12.57;;;;;;;6.02;100.00;101733.02;1724531;81;21500;-75
2021/11/14 04:05:18;;;;;;;20.10;14.43;;;;;;;6.11;100.00;101735.84;1687568;83;21796;-71
2021/11/14 04:07:46;;;;;;;17.80;11.90;;;;;;;6.18;100.00;101728.77;1681083;84;20915;-72
2021/11/14 04:10:14;;;;;;;21.62;12.73;;;;;;;6.16;100.00;101731.12;1680079;84;21222;-73
2021/11/14 04:12:42;;;;;;;20.97;12.90;;;;;;;6.09;100.00;101738.05;1651925;85;21531;-74
2021/11/14 04:15:11;;;;;;;21.17;12.78;;;;;;;6.07;100.00;101743.02;1680286;84;21007;-74
2021/11/14 04:17:40;;;;;;;18.80;11.63;;;;;;;6.09;100.00;101734.16;1668990;84;21543;-74
2021/11/14 04:20:09;;;;;;;27.40;16.87;;;;;;;6.23;98.20;101731.82;1667919;84;21389;-74
2021/11/14 04:22:37;;;;;;;31.68;19.42;;;;;;;6.09;95.90;101736.75;1670663;84;22250;-74
2021/11/14 04:25:06;;;;;;;28.27;17.55;;;;;;;5.97;94.27;101738.98;1667906;84;21030;-74
2021/11/14 04:27:33;;;;;;;28.40;16.32;;;;;;;6.13;90.96;101745.59;1668489;84;21113;-70
2021/11/14 04:30:00;;;;;;;29.77;18.98;;;;;;;6.15;88.49;101746.31;1667808;84;22142;-70
2021/11/14 04:32:29;;;;;;;28.52;17.40;;;;;;;6.18;85.59;101748.67;1666587;84;21090;-74
2021/11/14 04:34:56;;;;;;;25.05;16.17;;;;;;;6.17;85.21;101747.81;1667704;84;22277;-74
2021/11/14 04:37:24;;;;;;;30.82;18.85;;;;;;;6.31;81.19;101746.77;1667491;84;21571;-69
2021/11/14 04:39:51;;;;;;;26.15;17.67;;;;;;;6.35;79.70;101753.36;1667523;84;21069;-74
2021/11/14 04:42:18;;;;;;;26.65;17.65;;;;;;;6.46;77.94;101752.05;1665729;84;21496;-73
2021/11/14 04:44:45;;;;;;;30.27;17.55;;;;;;;6.15;79.79;101756.66;1669034;84;22280;-74
2021/11/14 04:47:12;;;;;;;29.05;17.23;;;;;;;5.98;82.09;101763.11;1666420;84;21241;-75
2021/11/14 04:49:41;;;;;;;29.57;17.90;;;;;;;6.46;78.27;101757.70;1667315;84;21082;-75
2021/11/14 04:52:09;;;;;;;25.20;16.23;;;;;;;6.31;77.43;101767.01;1666282;84;21594;-68
2021/11/14 04:54:36;;;;;;;25.80;16.23;;;;;;;6.40;78.33;101763.35;1667246;84;21094;-75
2021/11/14 04:57:04;;;;;;;26.45;15.43;;;;;;;6.21;79.33;101771.71;1666607;84;21031;-74
2021/11/14 04:59:32;;;;;;;25.45;15.75;;;;;;;6.52;79.32;101769.72;1667391;84;21070;-67
2021/11/14 05:01:59;;;;;;;21.87;14.35;;;;;;;6.39;79.66;101770.30;1661035;84;21046;-76
2021/11/14 05:04:26;;;;;;;25.02;14.23;;;;;;;6.50;80.04;101774.66;1655307;84;21070;-74
2021/11/14 05:06:54;;;;;;;22.42;13.98;;;;;;;6.86;77.55;101773.55;1658387;84;21081;-73
2021/11/14 05:09:21;;;;;;;22.15;13.83;;;;;;;7.05;76.64;101786.70;1657733;84;21050;-69
2021/11/14 05:11:49;;;;;;;20.88;14.38;;;;;;;6.99;80.73;101781.98;1658454;84;21114;-75
2021/11/14 05:14:16;;;;;;;26.35;14.70;;;;;;;7.22;82.16;101789.22;1656489;84;21095;-72
2021/11/14 05:16:44;;;;;;;20.65;14.18;;;;;;;7.29;82.45;101787.78;1658639;84;21110;-73
2021/11/14 05:19:11;;;;;;;19.92;12.90;;;;;;;7.15;89.75;101796.32;1657195;84;21127;-74
2021/11/14 05:21:39;;;;;;;21.25;12.28;;;;;;;7.50;91.12;101787.83;1660645;84;21083;-71
2021/11/14 05:24:07;;;;;;;18.60;12.35;;;;;;;7.68;93.44;101789.84;1658414;84;21181;-69
2021/11/14 05:26:35;;;;;;;18.70;12.35;;;;;;;8.13;89.29;101792.16;1658145;84;20982;-72
2021/11/14 05:29:03;;;;;;;15.25;10.68;;;;;;;8.57;86.51;101788.41;1657280;84;21035;-71
2021/11/14 05:31:31;;;;;;;21.55;10.85;;;;;;;8.82;82.45;101788.39;1658093;84;21327;-69
2021/11/14 05:33:58;;;;;;;18.73;12.28;;;;;;;9.15;77.40;101786.39;1657717;84;21109;-69
2021/11/14 05:36:26;;;;;;;17.62;11.40;;;;;;;9.41;75.07;101784.89;1658031;84;21163;-70
2021/11/14 05:38:53;;;;;;;16.77;11.60;;;;;;;9.70;72.55;101784.88;1658426;84;21074;-70
2021/11/14 05:41:21;;;;;;;13.55;10.30;;;;;;;10.10;70.39;101790.80;1657270;84;21137;-68
2021/11/14 05:43:47;;;;;;;17.17;11.85;;;;;;;10.48;67.19;101789.36;1661146;84;21089;-70
2021/11/14 05:46:14;;;;;;;19.32;12.65;;;;;;;10.27;67.11;101794.00;1656878;84;21069;-68
2021/11/14 05:48:42;;;;;;;18.40;12.65;;;;;;;10.22;68.35;101795.68;1658427;84;21154;-68
2021/11/14 05:51:09;;;;;;;18.82;12.15;;;;;;;10.77;62.86;101792.31;1657466;84;21063;-67
2021/11/14 05:53:37;;;;;;;20.48;11.53;;;;;;;10.72;64.00;101797.16;1663983;84;21014;-68
2021/11/14 05:56:05;;;;;;;15.93;11.10;;;;;;;11.06;60.74;101796.50;1657254;84;21038;-69
2021/11/14 05:58:56;;;;;;;17.90;11.35;;;;;;;11.48;58.08;101790.22;1657839;84;21544;-67
2021/11/14 06:01:19;;;;;;;16.95;10.95;;;;;;;11.67;57.17;101786.60;1655278;84;21189;-67
2021/11/14 06:04:05;;;;;;;16.93;10.90;;;;;;;11.83;55.28;101780.66;1659977;85;21105;-68
2021/11/14 06:06:26;;;;;;;14.80;11.35;;;;;;;12.03;55.09;101782.59;1655149;85;22333;-68
2021/11/14 06:08:53;;;;;;;17.05;11.50;;;;;;;12.48;53.01;101784.94;1659515;86;21509;-68
2021/11/14 06:11:24;;;;;;;17.87;11.93;;;;;;;12.64;51.56;101779.75;1657380;85;22458;-69
2021/11/14 06:13:52;;;;;;;16.77;11.97;;;;;;;12.73;51.08;101776.69;1659687;85;21156;-68
2021/11/14 06:16:21;;;;;;;16.45;11.12;;;;;;;12.97;51.37;101785.56;1658610;85;21102;-70
2021/11/14 06:18:49;;;;;;;14.00;9.63;;;;;;;13.27;49.45;101777.11;1657999;86;21031;-70
2021/11/14 06:21:17;;;;;;;14.00;10.68;;;;;;;13.45;48.56;101769.09;1658261;85;21142;-70
2021/11/14 06:23:45;;;;;;;15.68;11.28;;;;;;;13.62;48.25;101774.63;1658888;86;21049;-66
2021/11/14 06:26:12;;;;;;;14.97;10.87;;;;;;;13.76;48.43;101776.27;1657146;86;21176;-65
2021/11/14 06:28:39;;;;;;;15.83;10.67;;;;;;;13.98;48.02;101770.78;1658939;85;21714;-69
2021/11/14 06:31:06;;;;;;;13.50;9.87;;;;;;;14.24;47.30;101771.36;1657173;86;22613;-68
2021/11/14 06:33:35;;;;;;;13.83;10.50;;;;;;;14.31;46.93;101771.50;1656486;84;21879;-67
2021/11/14 06:36:03;;;;;;;15.57;10.90;;;;;;;14.54;45.93;101771.59;1651882;85;21725;-71
2021/11/14 06:38:30;;;;;;;16.40;10.20;;;;;;;14.51;45.32;101775.39;1653873;85;21384;-69
2021/11/14 06:40:57;;;;;;;15.70;11.20;;;;;;;14.53;46.30;101769.96;1658453;86;21349;-69
2021/11/14 06:43:25;;;;;;;15.67;11.80;;;;;;;14.91;45.47;101771.38;1661192;86;21352;-68
2021/11/14 06:45:53;;;;;;;18.30;12.90;;;;;;;14.96;44.67;101769.04;1660808;86;21215;-70
2021/11/14 06:48:20;;;;;;;21.17;14.80;;;;;;;15.07;43.88;101769.45;1661319;86;21677;-68
2021/11/14 06:50:47;;;;;;;17.77;12.83;;;;;;;15.06;43.13;101770.45;1660514;86;21388;-70
2021/11/14 06:53:15;;;;;;;19.00;12.77;;;;;;;14.87;43.26;101766.16;1660040;86;21347;-72
2021/11/14 06:55:42;;;;;;;20.03;14.43;;;;;;;14.93;42.88;101766.29;1659901;86;21412;-72
2021/11/14 06:58:09;;;;;;;17.47;13.47;;;;;;;14.99;42.60;101762.95;1659245;86;21708;-69
2021/11/14 07:00:38;;;;;;;21.77;14.03;;;;;;;15.08;42.77;101763.73;1660191;86;21840;-67
2021/11/14 07:03:05;;;;;;;18.53;14.27;;;;;;;15.27;42.62;101757.98;1665625;85;21289;-70
2021/11/14 07:05:33;;;;;;;25.23;14.70;;;;;;;15.48;41.79;101754.67;1668745;84;21883;-72
2021/11/14 07:08:00;;;;;;;18.03;13.40;;;;;;;15.45;41.77;101752.89;1667801;84;21393;-70
2021/11/14 07:10:27;;;;;;;16.33;12.50;;;;;;;15.29;41.79;101755.17;1666307;84;21520;-67
2021/11/14 07:12:54;;;;;;;18.10;11.77;;;;;;;15.43;41.44;101759.66;1667788;84;21319;-67
2021/11/14 07:15:22;;;;;;;20.30;12.20;;;;;;;15.56;41.03;101761.66;1668679;84;21437;-67
2021/11/14 07:17:50;;;;;;;15.87;11.53;;;;;;;15.56;41.15;101759.03;1668494;84;23190;-70
2021/11/14 07:20:17;;;;;;;18.57;12.70;;;;;;;15.50;41.71;101757.95;1669664;84;21359;-68
2021/11/14 07:22:45;;;;;;;16.30;11.93;;;;;;;15.70;40.85;101760.91;1667814;84;21321;-69
2021/11/14 07:25:15;;;;;;;16.50;12.10;;;;;;;15.70;40.85;101760.91;1665352;84;21792;-69
2021/11/14 07:27:43;;;;;;;16.80;12.63;;;;;;;15.97;40.91;101763.91;1668039;84;22560;-67
2021/11/14 07:30:11;;;;;;;20.90;13.37;;;;;;;15.97;40.91;101763.91;1668984;84;21416;-69
2021/11/14 07:32:40;;;;;;;16.10;12.43;;;;;;;16.26;40.21;101761.26;1666612;84;21624;-67
2021/11/14 07:35:11;;;;;;;17.17;12.43;;;;;;;16.26;40.21;101761.26;1667324;84;21590;-69
2021/11/14 07:37:39;;;;;;;;;;;;;;;16.47;39.98;101760.48;1670292;84;21850;-69
2021/11/14 07:40:08;;;;;;;18.00;12.90;;;;;;;16.61;39.67;101767.23;1666128;84;21095;-67
2021/11/14 07:42:37;;;;;;;21.03;13.93;;;;;;;16.76;40.16;101759.63;1666832;84;21810;-67
2021/11/14 07:45:07;;;;;;;23.03;14.03;;;;;;;17.04;39.47;101756.23;1666949;84;22308;-68
2021/11/14 07:47:35;;;;;;;20.47;13.67;;;;;;;17.28;38.77;101764.27;1666849;84;22272;-66
2021/11/14 07:50:03;;;;;;;21.53;14.60;;;;;;;17.24;38.17;101751.16;1666869;84;21659;-66
2021/11/14 07:52:31;;;;;;;20.33;13.17;;;;;;;17.24;38.17;101751.16;1665319;84;21829;-67
2021/11/14 07:54:58;;;;;;;20.73;12.80;;;;;;;17.41;37.90;101765.67;1667170;84;21659;-67
2021/11/14 07:57:26;;;;;;;19.77;12.53;;;;;;;17.57;37.82;101761.12;1666584;84;21750;-66
2021/11/14 07:59:53;;;;;;;28.47;12.60;;;;;;;17.10;38.15;101755.49;1666813;84;21850;-67
2021/11/14 08:02:20;;;;;;;20.57;13.27;;;;;;;17.23;38.21;101756.09;1662441;84;21771;-67
2021/11/14 08:04:48;;;;;;;22.47;14.57;;;;;;;17.71;37.79;101760.20;1707841;83;21847;-67
2021/11/14 08:07:15;;;;;;;18.70;12.70;;;;;;;17.56;37.60;101754.22;1706230;83;21709;-68
2021/11/14 08:09:42;;;;;;;20.90;12.53;;;;;;;17.61;38.04;101742.59;1707910;83;21705;-66
2021/11/14 08:12:10;;;;;;;20.17;13.17;;;;;;;17.46;38.02;101749.28;1705167;83;21706;-67
2021/11/14 08:14:39;;;;;;;21.57;13.40;;;;;;;17.48;38.01;101743.33;1708767;83;21732;-66
2021/11/14 08:17:06;;;;;;;22.80;14.10;;;;;;;17.52;37.55;101740.61;1705164;83;21152;-66
2021/11/14 08:19:34;;;;;;;19.80;13.17;;;;;;;17.39;38.01;101733.94;1677151;85;21662;-66
2021/11/14 08:22:04;;;;;;;21.30;13.83;;;;;;;17.39;38.01;101733.94;1653959;86;20971;-67
2021/11/14 08:24:33;;;;;;;20.23;15.13;;;;;;;17.29;38.26;101735.58;1657866;86;21797;-66
2021/11/14 08:27:00;;;;;;;21.77;15.67;;;;;;;17.36;38.08;101734.32;1657783;86;22219;-66
2021/11/14 08:29:27;;;;;;;21.40;14.57;;;;;;;17.52;38.44;101735.34;1656339;86;22233;-66
2021/11/14 08:31:54;;;;;;;21.60;14.63;;;;;;;17.66;38.28;101729.15;1657675;86;21597;-66
2021/11/14 08:34:21;;;;;;;20.03;14.27;;;;;;;17.66;38.28;101729.15;1656583;86;21758;-66
2021/11/14 08:36:48;;;;;;;27.20;14.83;;;;;;;18.18;37.09;101723.86;1657018;86;22412;-67
2021/11/14 08:39:16;;;;;;;20.87;13.60;;;;;;;17.64;37.86;101723.23;1656906;86;21138;-66
2021/11/14 08:41:44;;;;;;;23.90;14.60;;;;;;;17.44;38.20;101726.27;1657782;86;23201;-67
2021/11/14 08:44:12;;;;;;;20.10;13.17;;;;;;;17.46;37.94;101726.87;1656988;85;21775;-68
2021/11/14 08:46:39;;;;;;;20.80;13.93;;;;;;;17.48;38.00;101720.91;1655720;86;21890;-67
2021/11/14 08:49:06;;;;;;;28.63;15.50;;;;;;;17.71;38.04;101712.23;1656575;86;21749;-67
2021/11/14 08:51:33;;;;;;;21.40;14.43;;;;;;;17.77;37.85;101711.16;1656971;86;21788;-65
2021/11/14 08:54:01;;;;;;;22.80;14.27;;;;;;;17.79;37.46;101718.39;1657127;86;21625;-67
2021/11/14 08:56:32;;;;;;;26.97;15.53;;;;;;;17.53;37.91;101712.42;1656244;86;22335;-65
2021/11/14 08:58:59;;;;;;;27.67;16.83;;;;;;;17.45;38.17;101709.43;1656881;86;21794;-66
2021/11/14 09:01:26;;;;;;;27.40;17.20;;;;;;;17.54;38.07;101712.72;1657236;86;21764;-65
2021/11/14 09:03:55;;;;;;;26.60;14.60;;;;;;;17.32;38.26;101706.72;1662834;84;21748;-66
2021/11/14 09:06:22;;;;;;;24.70;13.77;;;;;;;17.33;38.44;101700.44;1661757;84;22319;-65
2021/11/14 09:08:50;;;;;;;22.27;14.23;;;;;;;17.57;38.04;101692.06;1664890;84;21812;-65
2021/11/14 09:11:18;;;;;;;26.03;16.27;;;;;;;17.57;38.04;101692.06;1663057;85;21863;-66
2021/11/14 09:13:46;;;;;;;24.77;15.10;;;;;;;17.59;38.00;101693.20;1663882;84;21737;-66
2021/11/14 09:16:14;;;;;;;25.93;14.53;;;;;;;17.62;37.77;101687.03;1663043;84;22416;-65
2021/11/14 09:18:41;;;;;;;28.47;17.33;;;;;;;17.68;37.68;101672.24;1664338;84;22473;-65
2021/11/14 09:21:08;;;;;;;26.37;16.53;;;;;;;17.49;37.67;101686.94;1662961;84;21722;-66
2021/11/14 09:23:35;;;;;;;28.53;15.63;;;;;;;17.46;37.90;101683.38;1678144;84;21994;-66
2021/11/14 09:26:03;;;;;;;29.53;15.93;;;;;;;17.46;37.90;101683.38;1657896;84;22515;-67
2021/11/14 09:28:30;;;;;;;32.67;15.80;;;;;;;17.77;37.72;101674.23;1658541;84;22101;-65
2021/11/14 09:30:58;;;;;;;26.07;14.70;;;;;;;17.77;37.72;101674.23;1658510;84;21481;-66
2021/11/14 09:33:26;;;;;;;28.77;14.33;;;;;;;17.87;37.79;101672.87;1658826;84;21934;-66
2021/11/14 09:35:54;;;;;;;30.37;15.57;;;;;;;18.02;37.44;101674.56;1659330;84;21876;-68
2021/11/14 09:38:21;;;;;;;31.07;15.97;;;;;;;17.87;37.59;101664.95;1659618;84;21573;-66
2021/11/14 09:40:48;;;;;;;31.07;15.63;;;;;;;17.99;37.63;101657.28;1655331;84;21513;-66
2021/11/14 09:43:18;;;;;;;28.97;15.57;;;;;;;17.99;37.63;101657.28;1660167;84;21433;-67
2021/11/14 09:45:45;;;;;;;23.90;12.87;;;;;;;18.13;37.44;101655.00;1659165;84;21286;-65
2021/11/14 09:48:12;;;;;;;26.37;13.77;;;;;;;18.26;36.92;101654.25;1658060;84;21444;-66
2021/11/14 09:50:40;;;;;;;24.17;12.93;;;;;;;18.16;36.83;101646.70;1662392;84;22627;-65
2021/11/14 09:53:09;;;;;;;20.77;11.20;;;;;;;18.11;37.20;101633.81;1657261;84;21362;-67
2021/11/14 09:55:36;;;;;;;20.00;10.97;;;;;;;18.11;37.20;101633.81;1659898;84;21489;-65
2021/11/14 09:58:06;;;;;;;17.50;10.83;;;;;;;18.57;36.51;101631.23;1658446;84;21319;-67
2021/11/14 10:00:36;;;;;;;22.85;11.48;;;;;;;18.69;36.25;101632.77;1659593;84;21432;-66
2021/11/14 10:03:05;;;;;;;19.30;10.47;;;;;;;18.75;35.97;101640.40;1663715;84;21026;-66
2021/11/14 10:05:34;;;;;;;14.50;8.53;;;;;;;18.54;36.17;101628.99;1665892;84;21525;-65
2021/11/14 10:08:05;;;;;;;18.37;8.80;;;;;;;18.54;36.17;101628.99;1665911;84;22127;-66
2021/11/14 10:10:38;;;;;;;14.63;8.05;;;;;;;18.45;36.11;101620.98;1666108;84;21332;-66
2021/11/14 10:13:15;;;;;;;14.00;8.10;;;;;;;18.44;36.23;101614.05;1665962;84;20965;-66
2021/11/14 10:15:43;;;;;;;16.27;8.67;;;;;;;18.50;36.10;101617.22;1665363;84;21815;-68
2021/11/14 10:18:12;;;;;;;16.07;8.87;;;;;;;18.08;36.64;101614.41;1666693;84;21466;-65
2021/11/14 10:20:39;;;;;;;17.87;8.13;;;;;;;18.22;36.47;101607.64;1662931;84;21180;-65
2021/11/14 10:23:10;;;;;;;15.53;8.33;;;;;;;18.22;36.47;101607.64;1666206;84;21864;-66
2021/11/14 10:25:37;;;;;;;;;;;;;;;18.40;36.44;101600.95;1666733;84;21064;-68
2021/11/14 10:28:05;;;;;;;13.83;7.23;;;;;;;18.59;36.35;101598.02;1700035;82;20914;-65
2021/11/14 10:30:37;;;;;;;13.53;6.97;;;;;;;18.84;35.89;101601.70;1670177;83;21334;-66
2021/11/14 10:33:08;;;;;;;13.13;7.00;;;;;;;18.82;35.53;101598.44;1659925;85;21273;-66
2021/11/14 10:35:37;;;;;;;18.32;7.50;;;;;;;18.82;35.53;101598.44;1660672;85;21207;-68
2021/11/14 10:38:07;;;;;;;14.47;6.77;;;;;;;18.88;35.63;101595.50;1661800;85;21172;-66
2021/11/14 10:40:39;;;;;;;13.45;7.15;;;;;;;18.88;35.63;101595.50;1659774;85;21491;-67
2021/11/14 10:43:06;;;;;;;14.65;7.33;;;;;;;18.92;35.43;101598.84;1660492;85;21115;-66
2021/11/14 10:45:38;;;;;;;15.37;7.00;;;;;;;18.67;35.62;101589.37;1659499;85;21521;-65
2021/11/14 10:48:11;;;;;;;14.15;5.97;;;;;;;18.52;35.67;101598.00;1661229;85;21902;-65
2021/11/14 10:50:43;;;;;;;13.87;7.00;;;;;;;18.42;35.96;101596.29;1669883;83;20935;-66
2021/11/14 10:53:13;;;;;;;10.10;5.70;;;;;;;18.52;35.91;101587.95;1661294;85;21273;-66
2021/11/14 10:55:54;;;;;;;11.90;6.10;;;;;;;18.27;36.02;101591.20;1658815;85;21694;-66
2021/11/14 10:58:25;;;;;;;12.20;6.65;;;;;;;18.24;36.24;101593.72;1659597;86;22070;-66
2021/11/14 11:00:59;;;;;;;12.67;6.10;;;;;;;18.38;36.13;101590.60;1660306;85;20969;-67
2021/11/14 11:03:33;;;;;;;14.13;6.30;;;;;;;18.36;36.22;101594.45;1664932;85;21900;-69
2021/11/14 11:05:59;;;;;;;14.67;6.00;;;;;;;18.40;36.30;101594.34;1657134;85;21378;-66
2021/11/14 11:08:26;;;;;;;15.97;7.40;;;;;;;18.61;36.25;101594.16;1673408;85;21270;-66
2021/11/14 11:10:58;;;;;;;13.53;7.27;;;;;;;18.65;35.98;101588.78;1666141;83;21237;-67
2021/11/14 11:13:45;;;;;;;13.43;7.40;;;;;;;18.75;35.87;101592.34;1666632;83;21692;-69
2021/11/14 11:16:18;;;;;;;16.37;7.97;;;;;;;18.68;35.89;101592.34;1666676;83;21354;-66
2021/11/14 11:18:45;;;;;;;16.57;7.05;;;;;;;18.81;35.84;101590.73;1666308;83;21881;-65